Portada
METAR-TAF:

METAR-TAF

Aeroports :

Ghriss, Algèria

latitud: 35-12N, longitud: 000-08E, altitud: 514 m

Observació

L'informe es va fer fa 56 minuts, a les 08:00 UTC
Vent 17 kt del Sud/Sud-Est
Temperatura 12°C
Humitat 67%
Pressió 1020 hPa
Visibilitat 10 km o més
sense núvols per sota de 1500 mi sense presència de cumulonimbus.

METAR: DAOV 060800Z 16017KT CAVOK 12/06 Q1020

Hora: 09:56 (08:56 UTC)

Pronòstic

L'informe es va fer fa 3 hores i 56 minuts, a les 05:00 UTC
Pronòstic vàlid del 06 a les 06 UTC al 06 a les 15 UTC
Vent 2 kt amb direcció variable
Visibilitat 10 km o més
Escasses núvols a una alçada de 3300 ft
Núvols disperses a una alçada de 23000 ft
Evolucionant progressivament
l' 06 a les 08 UTC al 06 a les 11 UTC
Vent 12 kt del Sud

TAF: DAOV 060500Z 0606/0615 VRB02KT 9999 FEW033 SCT230 BECMG 0608/0611 17012KT

Observacions i pronòstics meteorològics de més de 4000 aeroports (METAR i TAF).

Les estacions disponibles són els punts grocs i vermells al mapa.

Posi el ratolí al punt desitjat per veure el nom de l'estació.

Feu clic per veure les observacions i els pronòstics meteorològics.

Per canviar el mapa: feu clic els botons verds amb una creu de color negre per apropar; al botó verd amb un guió per allunyar la imatge; o en les fletxes verdes per a mapes adjacents.


METAR-TAF: